createdAt,value
2022-08-16T00:02:13.458Z,24.15
2022-08-16T00:09:15.012Z,24.14
2022-08-16T00:17:05.551Z,24.01
2022-08-16T00:23:46.080Z,23.99
2022-08-16T00:30:47.911Z,23.94
2022-08-16T00:37:58.378Z,23.93
2022-08-16T00:45:06.397Z,23.89
2022-08-16T00:52:30.077Z,23.82
2022-08-16T00:59:34.235Z,23.79
2022-08-16T01:06:48.929Z,23.75
2022-08-16T01:14:00.739Z,23.71
2022-08-16T01:21:33.336Z,23.70
2022-08-16T01:28:38.795Z,23.65
2022-08-16T01:35:57.180Z,23.60
2022-08-16T01:43:00.121Z,23.53
2022-08-16T01:51:05.097Z,23.47
2022-08-16T01:57:26.862Z,23.38
2022-08-16T02:04:48.221Z,23.31
2022-08-16T02:11:53.558Z,23.25
2022-08-16T02:18:55.941Z,23.21
2022-08-16T02:25:59.514Z,23.21
2022-08-16T02:33:03.117Z,23.16
2022-08-16T02:40:05.753Z,23.20
2022-08-16T02:47:08.873Z,23.11
2022-08-16T02:54:10.902Z,23.07
2022-08-16T03:01:24.643Z,23.05
2022-08-16T03:08:51.970Z,23.02
2022-08-16T03:15:55.507Z,22.99
2022-08-16T03:22:58.395Z,22.96
2022-08-16T03:30:15.974Z,22.92
2022-08-16T03:37:20.038Z,22.94
2022-08-16T03:44:44.240Z,22.90
2022-08-16T03:51:44.214Z,22.83
2022-08-16T03:58:53.315Z,22.82
2022-08-16T04:05:59.284Z,22.82
2022-08-16T04:13:04.169Z,22.86
2022-08-16T04:20:23.676Z,22.81
2022-08-16T04:27:31.973Z,22.85
2022-08-16T04:34:35.125Z,22.86
2022-08-16T04:41:37.298Z,22.93
2022-08-16T04:48:41.891Z,22.94
2022-08-16T04:55:46.649Z,22.95
2022-08-16T05:02:56.226Z,23.01
2022-08-16T05:10:00.427Z,23.05
2022-08-16T05:17:02.649Z,23.12
2022-08-16T05:24:07.053Z,23.17
2022-08-16T05:31:09.815Z,23.27
2022-08-16T05:38:33.115Z,23.36
2022-08-16T05:45:36.511Z,23.43
2022-08-16T05:52:39.349Z,23.48
2022-08-16T05:59:50.499Z,23.58
2022-08-16T06:07:06.906Z,23.69
2022-08-16T06:14:11.929Z,23.73
2022-08-16T06:21:23.641Z,23.82
2022-08-16T06:28:36.020Z,23.92
2022-08-16T06:35:41.424Z,24.09
2022-08-16T06:42:48.080Z,24.17
2022-08-16T06:50:08.563Z,24.32
2022-08-16T06:57:23.608Z,24.50
2022-08-16T07:04:32.411Z,24.60
2022-08-16T07:11:45.561Z,24.72
2022-08-16T07:18:58.158Z,24.84
2022-08-16T07:26:03.042Z,25.07
2022-08-16T07:33:07.151Z,25.44
2022-08-16T07:40:12.905Z,25.91
2022-08-16T07:47:18.192Z,26.45
2022-08-16T07:54:20.827Z,27.07
2022-08-16T08:01:28.419Z,27.46
2022-08-16T08:08:49.199Z,28.17
2022-08-16T08:15:52.667Z,28.21
2022-08-16T08:23:01.016Z,28.83
2022-08-16T08:30:49.355Z,28.93
2022-08-16T08:37:54.803Z,29.68
2022-08-16T08:44:51.288Z,30.11
2022-08-16T08:51:55.058Z,30.62
2022-08-16T08:58:58.938Z,30.86
2022-08-16T09:06:12.524Z,31.11
2022-08-16T09:13:20.698Z,31.25
2022-08-16T09:20:26.903Z,31.65
2022-08-16T09:27:29.604Z,32.06
2022-08-16T09:34:51.148Z,32.28
2022-08-16T09:41:56.078Z,32.55
2022-08-16T09:48:58.228Z,33.76
2022-08-16T09:56:11.397Z,33.45
2022-08-16T10:03:13.084Z,33.46
2022-08-16T10:10:18.895Z,33.58
2022-08-16T10:24:39.427Z,33.77
2022-08-16T10:31:45.404Z,33.99
2022-08-16T10:38:47.841Z,33.98
2022-08-16T10:46:00.299Z,34.56
2022-08-16T10:53:07.502Z,34.18
2022-08-16T11:00:21.110Z,34.87
2022-08-16T11:22:39.460Z,33.54
2022-08-16T11:29:29.270Z,33.67
2022-08-16T11:36:31.100Z,34.96
2022-08-16T11:43:33.487Z,35.44
2022-08-16T11:50:35.302Z,34.71
2022-08-16T11:57:36.757Z,35.56
2022-08-16T12:04:38.840Z,36.12
2022-08-16T12:11:40.569Z,35.21
2022-08-16T12:25:52.235Z,35.17
2022-08-16T12:32:56.313Z,36.03
2022-08-16T12:39:59.590Z,36.57
2022-08-16T12:47:20.426Z,35.97
2022-08-16T12:54:24.759Z,35.24
2022-08-16T13:01:28.572Z,35.09
2022-08-16T13:08:30.990Z,34.38
2022-08-16T13:15:36.191Z,33.78
2022-08-16T13:22:54.596Z,33.41
2022-08-16T13:29:57.647Z,33.40
2022-08-16T13:36:59.399Z,33.24
2022-08-16T13:44:01.612Z,33.04
2022-08-16T13:51:15.635Z,32.87
2022-08-16T13:58:36.517Z,33.60
2022-08-16T14:05:38.874Z,33.94
2022-08-16T14:12:40.372Z,34.38
2022-08-16T14:19:44.746Z,35.32
2022-08-16T14:26:46.636Z,35.74
2022-08-16T14:33:48.144Z,34.99
2022-08-16T14:40:55.060Z,34.61
2022-08-16T14:47:57.299Z,34.12
2022-08-16T14:54:59.393Z,34.71
2022-08-16T15:02:01.841Z,34.69
2022-08-16T15:09:06.590Z,34.75
2022-08-16T15:16:08.043Z,35.74
2022-08-16T15:23:09.997Z,36.19
2022-08-16T15:30:58.015Z,36.09
2022-08-16T15:37:42.522Z,36.01
2022-08-16T15:44:52.944Z,35.98
2022-08-16T15:51:55.427Z,36.08
2022-08-16T15:58:56.884Z,35.87
2022-08-16T16:06:02.472Z,35.86
2022-08-16T16:13:05.279Z,35.62
2022-08-16T16:20:15.054Z,35.46
2022-08-16T16:27:16.725Z,35.30
2022-08-16T16:34:18.224Z,35.20
2022-08-16T16:41:24.435Z,34.96
2022-08-16T16:48:34.386Z,34.90
2022-08-16T16:55:38.211Z,34.54
2022-08-16T17:02:49.381Z,34.20
2022-08-16T17:09:55.374Z,34.08
2022-08-16T17:16:57.743Z,33.80
2022-08-16T17:24:00.627Z,33.51
2022-08-16T17:31:02.701Z,33.28
2022-08-16T17:38:07.745Z,33.03
2022-08-16T17:45:09.811Z,32.72
2022-08-16T17:52:11.367Z,32.46
2022-08-16T17:59:14.602Z,32.20
2022-08-16T18:06:18.213Z,31.94
2022-08-16T18:13:19.655Z,31.70
2022-08-16T18:20:40.208Z,31.47
2022-08-16T18:27:41.643Z,31.23
2022-08-16T18:34:43.286Z,30.98
2022-08-16T18:41:47.077Z,30.77
2022-08-16T18:48:48.619Z,30.62
2022-08-16T18:55:52.010Z,30.44
2022-08-16T19:03:00.852Z,30.26
2022-08-16T19:10:02.404Z,30.11
2022-08-16T19:17:05.295Z,29.96
2022-08-16T19:24:06.748Z,29.81
2022-08-16T19:31:26.417Z,29.64
2022-08-16T19:38:27.870Z,29.48
2022-08-16T19:45:29.327Z,29.36
2022-08-16T19:52:31.667Z,29.24
2022-08-16T19:59:39.421Z,29.12
2022-08-16T20:06:41.695Z,28.95
2022-08-16T20:13:43.931Z,28.81
2022-08-16T20:20:45.497Z,28.69
2022-08-16T20:27:46.971Z,28.57
2022-08-16T20:34:49.303Z,28.43
2022-08-16T20:41:50.815Z,28.34
2022-08-16T20:48:52.306Z,28.20
2022-08-16T20:55:54.056Z,28.07
2022-08-16T21:02:55.516Z,27.97
2022-08-16T21:09:57.072Z,27.87
2022-08-16T21:16:58.531Z,27.76
2022-08-16T21:24:00.027Z,27.56
2022-08-16T21:31:01.496Z,27.41
2022-08-16T21:38:29.486Z,27.28
2022-08-16T21:45:24.414Z,27.19
2022-08-16T21:52:26.691Z,27.12
2022-08-16T21:59:28.503Z,27.16
2022-08-16T22:06:30.818Z,27.08
2022-08-16T22:13:32.288Z,26.98
2022-08-16T22:20:33.727Z,26.86
2022-08-16T22:27:35.194Z,26.66
2022-08-16T22:34:36.668Z,26.50
2022-08-16T22:41:38.164Z,26.34
2022-08-16T22:48:42.407Z,26.25
2022-08-16T22:55:44.172Z,26.20
2022-08-16T23:02:57.784Z,26.15
2022-08-16T23:10:01.468Z,25.97
2022-08-16T23:17:02.988Z,25.84
2022-08-16T23:24:04.773Z,25.80
2022-08-16T23:31:06.979Z,25.70
2022-08-16T23:38:08.504Z,25.57
2022-08-16T23:45:33.820Z,25.52
2022-08-16T23:52:39.344Z,25.46
2022-08-16T23:59:56.507Z,25.35
